createdAt,value
2017-12-08T00:00:12.590Z,10.80
2017-12-08T00:01:12.677Z,10.70
2017-12-08T00:02:12.602Z,10.90
2017-12-08T00:03:12.702Z,11.00
2017-12-08T00:04:12.606Z,10.90
2017-12-08T00:05:12.714Z,10.30
2017-12-08T00:06:12.661Z,11.70
2017-12-08T00:07:12.727Z,10.90
2017-12-08T00:08:12.628Z,10.80
2017-12-08T00:09:12.740Z,10.60
2017-12-08T00:10:12.658Z,11.00
2017-12-08T00:11:12.750Z,10.00
2017-12-08T00:12:12.657Z,9.80
2017-12-08T00:13:12.767Z,10.40
2017-12-08T00:14:12.661Z,9.90
2017-12-08T00:15:12.780Z,10.80
2017-12-08T00:16:12.666Z,10.70
2017-12-08T00:17:12.692Z,10.00
2017-12-08T00:18:12.681Z,9.60
2017-12-08T00:19:12.705Z,10.00
2017-12-08T00:20:12.693Z,10.20
2017-12-08T00:21:13.741Z,9.80
2017-12-08T00:22:12.695Z,10.20
2017-12-08T00:23:12.837Z,11.40
2017-12-08T00:24:12.715Z,10.80
2017-12-08T00:25:12.747Z,10.80
2017-12-08T00:26:12.720Z,10.00
2017-12-08T00:27:12.757Z,10.20
2017-12-08T00:28:12.739Z,10.10
2017-12-08T00:29:12.769Z,9.90
2017-12-08T00:30:12.740Z,10.00
2017-12-08T00:31:12.782Z,10.60
2017-12-08T00:32:12.768Z,10.60
2017-12-08T00:33:12.795Z,10.00
2017-12-08T00:34:12.769Z,10.30
2017-12-08T00:35:13.831Z,10.40
2017-12-08T00:36:12.780Z,10.00
2017-12-08T00:37:12.831Z,10.20
2017-12-08T00:38:12.790Z,9.80
2017-12-08T00:39:12.851Z,9.90
2017-12-08T00:40:12.801Z,10.00
2017-12-08T00:41:12.858Z,9.90
2017-12-08T00:42:12.797Z,10.20
2017-12-08T00:43:12.863Z,10.30
2017-12-08T00:44:12.832Z,10.60
2017-12-08T00:45:12.876Z,10.20
2017-12-08T00:46:12.837Z,9.90
2017-12-08T00:47:12.895Z,9.70
2017-12-08T00:48:12.830Z,10.20
2017-12-08T00:49:12.906Z,9.90
2017-12-08T00:50:12.837Z,9.80
2017-12-08T00:51:12.926Z,9.70
2017-12-08T00:52:12.857Z,9.80
2017-12-08T00:53:12.931Z,9.70
2017-12-08T00:54:12.857Z,10.10
2017-12-08T00:55:12.944Z,10.10
2017-12-08T00:56:12.871Z,10.10
2017-12-08T00:57:12.961Z,8.50
2017-12-08T00:58:12.891Z,9.50
2017-12-08T00:59:12.974Z,9.00
2017-12-08T01:00:12.903Z,10.20
2017-12-08T01:01:12.987Z,9.30
2017-12-08T01:02:12.918Z,9.40
2017-12-08T01:03:13.009Z,9.80
2017-12-08T01:04:12.918Z,9.60
2017-12-08T01:05:13.009Z,9.50
2017-12-08T01:06:12.924Z,9.40
2017-12-08T01:07:13.031Z,10.30
2017-12-08T01:08:12.933Z,9.60
2017-12-08T01:09:13.042Z,9.70
2017-12-08T01:10:12.944Z,9.70
2017-12-08T01:11:13.053Z,9.90
2017-12-08T01:12:12.957Z,9.20
2017-12-08T01:13:13.074Z,9.60
2017-12-08T01:14:12.977Z,8.90
2017-12-08T01:15:13.076Z,9.30
2017-12-08T01:16:12.980Z,9.30
2017-12-08T01:17:13.096Z,9.30
2017-12-08T01:18:12.992Z,9.50
2017-12-08T01:19:13.115Z,9.30
2017-12-08T01:20:13.003Z,8.80
2017-12-08T01:21:13.048Z,8.70
2017-12-08T01:22:13.015Z,9.60
2017-12-08T01:23:13.033Z,9.30
2017-12-08T01:24:13.029Z,9.00
2017-12-08T01:25:13.052Z,8.50
2017-12-08T01:26:13.026Z,8.80
2017-12-08T01:27:14.083Z,8.60
2017-12-08T01:28:13.041Z,9.10
2017-12-08T01:29:13.085Z,9.10
2017-12-08T01:30:13.056Z,9.00
2017-12-08T01:31:13.085Z,9.20
2017-12-08T01:32:13.066Z,8.40
2017-12-08T01:33:13.106Z,9.30
2017-12-08T01:34:13.073Z,8.00
2017-12-08T01:35:13.112Z,9.00
2017-12-08T01:36:13.085Z,8.10
2017-12-08T01:37:13.125Z,8.50
2017-12-08T01:38:13.107Z,8.90
2017-12-08T01:39:13.146Z,8.60
2017-12-08T01:40:13.100Z,9.50
2017-12-08T01:41:13.160Z,8.60
2017-12-08T01:42:13.115Z,9.40
2017-12-08T01:43:13.174Z,8.90
2017-12-08T01:44:13.131Z,9.00
2017-12-08T01:45:13.183Z,8.10
2017-12-08T01:46:13.152Z,8.70
2017-12-08T01:47:13.200Z,9.40
2017-12-08T01:48:13.161Z,7.90
2017-12-08T01:49:13.213Z,7.40
2017-12-08T01:50:13.146Z,9.00
2017-12-08T01:51:13.227Z,8.30
2017-12-08T01:52:13.169Z,8.40
2017-12-08T01:53:13.242Z,8.10
2017-12-08T01:54:13.178Z,8.10
2017-12-08T01:55:13.263Z,7.40
2017-12-08T01:56:13.190Z,8.70
2017-12-08T01:57:13.276Z,8.10
2017-12-08T01:58:13.208Z,7.70
2017-12-08T01:59:13.276Z,8.00
2017-12-08T02:00:13.201Z,8.80
2017-12-08T02:01:13.291Z,7.80
2017-12-08T02:02:13.225Z,8.80
2017-12-08T02:03:13.653Z,7.20
2017-12-08T02:04:13.226Z,8.70
2017-12-08T02:05:13.330Z,7.50
2017-12-08T02:06:13.240Z,7.60
2017-12-08T02:07:13.326Z,7.30
2017-12-08T02:08:13.251Z,7.80
2017-12-08T02:09:13.358Z,7.90
2017-12-08T02:10:13.267Z,8.10
2017-12-08T02:11:13.371Z,8.70
2017-12-08T02:12:13.268Z,8.60
2017-12-08T02:13:13.384Z,7.90
2017-12-08T02:14:13.292Z,7.00
2017-12-08T02:15:13.396Z,7.80
2017-12-08T02:16:13.290Z,7.60
2017-12-08T02:17:13.398Z,8.40
2017-12-08T02:18:13.298Z,7.20
2017-12-08T02:19:13.412Z,6.90
2017-12-08T02:20:13.311Z,7.40
2017-12-08T02:21:13.424Z,7.80
2017-12-08T02:22:13.320Z,7.20
2017-12-08T02:23:13.334Z,7.50
2017-12-08T02:24:13.326Z,7.10
2017-12-08T02:25:13.361Z,7.20
2017-12-08T02:26:13.339Z,7.10
2017-12-08T02:27:13.372Z,7.50
2017-12-08T02:28:13.378Z,7.10
2017-12-08T02:29:13.379Z,6.80
2017-12-08T02:30:13.364Z,7.10
2017-12-08T02:31:13.392Z,6.40
2017-12-08T02:32:13.376Z,6.40
2017-12-08T02:33:13.445Z,6.20
2017-12-08T02:34:13.376Z,5.90
2017-12-08T02:35:13.419Z,6.70
2017-12-08T02:36:13.405Z,5.80
2017-12-08T02:37:14.463Z,6.20
2017-12-08T02:38:13.398Z,6.20
2017-12-08T02:39:13.456Z,6.20
2017-12-08T02:40:13.413Z,5.80
2017-12-08T02:41:13.459Z,5.80
2017-12-08T02:42:13.491Z,5.70
2017-12-08T02:43:14.518Z,6.30
2017-12-08T02:44:13.469Z,5.80
2017-12-08T02:45:15.532Z,5.10
2017-12-08T02:46:13.449Z,5.20
2017-12-08T02:47:13.505Z,5.70
2017-12-08T02:48:13.448Z,5.20
2017-12-08T02:49:13.530Z,4.70
2017-12-08T02:50:13.458Z,5.10
2017-12-08T02:51:13.539Z,5.10
2017-12-08T02:52:13.494Z,5.10
2017-12-08T02:53:13.550Z,5.70
2017-12-08T02:54:13.489Z,5.20
2017-12-08T02:55:13.557Z,5.40
2017-12-08T02:56:13.505Z,5.90
2017-12-08T02:57:15.526Z,5.70
2017-12-08T02:58:13.510Z,5.20
2017-12-08T02:59:14.616Z,6.20
2017-12-08T03:00:13.513Z,5.60
2017-12-08T03:01:13.605Z,6.30
2017-12-08T03:02:13.526Z,6.20
2017-12-08T03:03:13.625Z,5.60
2017-12-08T03:04:29.595Z,6.20
2017-12-08T03:05:13.538Z,6.80
2017-12-08T03:06:13.644Z,7.10
2017-12-08T03:07:13.544Z,6.90
2017-12-08T03:08:13.648Z,7.50
2017-12-08T03:09:13.552Z,7.70
2017-12-08T03:10:13.665Z,7.60
2017-12-08T03:11:13.574Z,7.60
2017-12-08T03:12:13.689Z,7.80
2017-12-08T03:13:13.578Z,8.20
2017-12-08T03:14:18.604Z,8.90
2017-12-08T03:15:13.593Z,9.30
2017-12-08T03:16:13.710Z,8.40
2017-12-08T03:17:13.590Z,8.30
2017-12-08T03:18:13.718Z,9.00
2017-12-08T03:19:13.604Z,8.80
2017-12-08T03:20:13.634Z,8.80
2017-12-08T03:21:13.613Z,9.70
2017-12-08T03:22:13.638Z,8.20
2017-12-08T03:23:13.628Z,8.80
2017-12-08T03:24:13.659Z,8.20
2017-12-08T03:25:13.637Z,8.30
2017-12-08T03:26:14.686Z,8.20
2017-12-08T03:27:13.654Z,8.10
2017-12-08T03:28:13.683Z,7.70
2017-12-08T03:29:13.659Z,7.60
2017-12-08T03:30:13.702Z,7.10
2017-12-08T03:31:13.670Z,7.50
2017-12-08T03:32:13.716Z,6.80
2017-12-08T03:33:13.684Z,6.00
2017-12-08T03:34:13.729Z,6.90
2017-12-08T03:35:13.710Z,6.50
2017-12-08T03:36:14.777Z,6.70
2017-12-08T03:37:13.735Z,6.90
2017-12-08T03:38:13.754Z,6.80
2017-12-08T03:39:13.707Z,5.90
2017-12-08T03:40:13.778Z,6.50
2017-12-08T03:41:13.724Z,6.00
2017-12-08T03:42:13.783Z,6.50
2017-12-08T03:43:13.739Z,5.80
2017-12-08T03:44:13.833Z,6.20
2017-12-08T03:45:14.887Z,6.10
2017-12-08T03:46:14.827Z,5.90
2017-12-08T03:47:13.758Z,6.30
2017-12-08T03:48:13.820Z,5.70
2017-12-08T03:49:13.760Z,6.80
2017-12-08T03:50:13.838Z,6.10
2017-12-08T03:51:13.812Z,6.50
2017-12-08T03:52:13.859Z,5.70
2017-12-08T03:53:13.772Z,6.40
2017-12-08T03:54:14.892Z,6.00
2017-12-08T03:55:13.790Z,6.00
2017-12-08T03:56:14.908Z,5.60
2017-12-08T03:57:13.816Z,6.10
2017-12-08T03:58:14.920Z,6.00
2017-12-08T03:59:13.817Z,6.00
2017-12-08T04:00:15.849Z,5.30
2017-12-08T04:01:13.825Z,5.60
2017-12-08T04:02:13.917Z,5.90
2017-12-08T04:03:13.826Z,6.20
2017-12-08T04:04:13.935Z,5.30
2017-12-08T04:05:13.851Z,5.90
2017-12-08T04:06:13.946Z,5.60
2017-12-08T04:07:14.926Z,5.70
2017-12-08T04:08:13.959Z,5.70
2017-12-08T04:09:13.854Z,5.40
2017-12-08T04:10:14.013Z,5.30
2017-12-08T04:11:13.882Z,5.70
2017-12-08T04:12:13.983Z,5.60
2017-12-08T04:13:13.899Z,4.50
2017-12-08T04:14:14.926Z,6.00
2017-12-08T04:15:13.881Z,4.80
2017-12-08T04:16:13.911Z,4.50
2017-12-08T04:17:13.899Z,4.30
2017-12-08T04:18:13.921Z,4.70
2017-12-08T04:19:13.933Z,5.20
2017-12-08T04:20:14.954Z,5.00
2017-12-08T04:21:13.909Z,4.70
2017-12-08T04:22:13.948Z,4.20
2017-12-08T04:23:13.937Z,4.40
2017-12-08T04:24:13.967Z,4.90
2017-12-08T04:25:13.931Z,4.70
2017-12-08T04:26:13.984Z,4.30
2017-12-08T04:27:13.944Z,4.90
2017-12-08T04:28:13.986Z,4.30
2017-12-08T04:29:13.964Z,4.50
2017-12-08T04:30:14.002Z,4.60
2017-12-08T04:31:14.020Z,4.70
2017-12-08T04:32:15.051Z,4.70
2017-12-08T04:33:13.975Z,4.30
2017-12-08T04:34:14.029Z,5.00
2017-12-08T04:35:13.987Z,4.30
2017-12-08T04:36:14.042Z,4.10
2017-12-08T04:37:13.997Z,4.60
2017-12-08T04:38:14.059Z,4.50
2017-12-08T04:39:14.008Z,4.50
2017-12-08T04:40:14.120Z,4.30
2017-12-08T04:41:14.020Z,4.40
2017-12-08T04:42:14.088Z,4.80
2017-12-08T04:43:14.034Z,4.80
2017-12-08T04:44:15.124Z,4.50
2017-12-08T04:45:14.046Z,4.50
2017-12-08T04:46:14.110Z,4.70
2017-12-08T04:47:14.063Z,3.80
2017-12-08T04:48:14.125Z,4.10
2017-12-08T04:49:14.071Z,4.40
2017-12-08T04:50:14.136Z,3.90
2017-12-08T04:51:14.078Z,3.50
2017-12-08T04:52:15.186Z,3.70
2017-12-08T04:53:14.073Z,3.70
2017-12-08T04:54:14.157Z,4.20
2017-12-08T04:55:14.091Z,4.70
2017-12-08T04:56:14.173Z,4.00
2017-12-08T04:57:14.109Z,4.00
2017-12-08T04:58:15.221Z,3.60
2017-12-08T04:59:14.109Z,3.50
2017-12-08T05:00:14.205Z,3.80
2017-12-08T05:01:14.108Z,3.60
2017-12-08T05:02:14.215Z,3.60
2017-12-08T05:03:14.126Z,3.70
2017-12-08T05:04:15.304Z,3.40
2017-12-08T05:05:14.136Z,3.60
2017-12-08T05:06:14.261Z,3.60
2017-12-08T05:07:14.145Z,4.00
2017-12-08T05:08:16.208Z,3.40
2017-12-08T05:09:14.237Z,3.70
2017-12-08T05:10:14.270Z,4.00
2017-12-08T05:11:14.166Z,3.40
2017-12-08T05:12:14.196Z,3.70
2017-12-08T05:13:14.188Z,3.60
2017-12-08T05:14:16.251Z,3.50
2017-12-08T05:15:14.182Z,3.70
2017-12-08T05:16:15.250Z,3.50
2017-12-08T05:17:14.197Z,3.30
2017-12-08T05:18:15.251Z,3.50
2017-12-08T05:19:14.212Z,3.70
2017-12-08T05:20:14.250Z,3.90
2017-12-08T05:21:14.214Z,3.60
2017-12-08T05:22:14.255Z,3.30
2017-12-08T05:23:14.231Z,2.90
2017-12-08T05:24:15.285Z,3.40
2017-12-08T05:25:14.263Z,3.50
2017-12-08T05:26:14.298Z,4.00
2017-12-08T05:27:14.258Z,3.10
2017-12-08T05:28:14.371Z,3.00
2017-12-08T05:29:14.269Z,3.70
2017-12-08T05:30:14.326Z,3.20
2017-12-08T05:31:14.290Z,3.30
2017-12-08T05:32:14.355Z,3.30
2017-12-08T05:33:14.272Z,3.20
2017-12-08T05:34:14.374Z,3.00
2017-12-08T05:35:14.285Z,3.30
2017-12-08T05:36:14.385Z,3.50
2017-12-08T05:37:14.303Z,3.00
2017-12-08T05:38:14.403Z,3.00
2017-12-08T05:39:14.303Z,2.90
2017-12-08T05:40:14.409Z,3.00
2017-12-08T05:41:14.312Z,2.90
2017-12-08T05:42:14.403Z,3.10
2017-12-08T05:43:14.329Z,3.00
2017-12-08T05:44:14.426Z,3.00
2017-12-08T05:45:14.342Z,3.20
2017-12-08T05:46:14.440Z,3.10
2017-12-08T05:47:14.363Z,2.60
2017-12-08T05:48:14.461Z,3.10
2017-12-08T05:49:15.076Z,3.10
2017-12-08T05:50:14.466Z,3.00
2017-12-08T05:51:14.369Z,2.80
2017-12-08T05:52:14.490Z,3.20
2017-12-08T05:53:14.387Z,2.90
2017-12-08T05:54:14.504Z,3.10
2017-12-08T05:55:14.406Z,2.80
2017-12-08T05:56:14.505Z,3.00
2017-12-08T05:57:14.452Z,2.60
2017-12-08T05:58:14.436Z,2.50
2017-12-08T05:59:14.399Z,2.90
2017-12-08T06:00:14.429Z,2.60
2017-12-08T06:01:14.410Z,3.20
2017-12-08T06:02:14.450Z,2.80
2017-12-08T06:03:14.428Z,2.70
2017-12-08T06:04:14.458Z,2.80
2017-12-08T06:05:14.438Z,2.80
2017-12-08T06:06:14.470Z,2.50
2017-12-08T06:07:14.450Z,3.00
2017-12-08T06:08:14.483Z,2.70
2017-12-08T06:09:14.459Z,2.80
2017-12-08T06:10:14.505Z,2.60
2017-12-08T06:11:14.465Z,3.00
2017-12-08T06:12:14.509Z,2.20
2017-12-08T06:13:14.476Z,2.90
2017-12-08T06:14:14.531Z,2.70
2017-12-08T06:15:14.485Z,2.80
2017-12-08T06:16:14.569Z,3.00
2017-12-08T06:17:14.494Z,3.20
2017-12-08T06:18:14.554Z,2.90
2017-12-08T06:19:14.510Z,2.80
2017-12-08T06:20:14.567Z,2.80
2017-12-08T06:21:14.502Z,2.40
2017-12-08T06:22:14.574Z,2.90
2017-12-08T06:23:14.526Z,2.80
2017-12-08T06:24:14.589Z,2.30
2017-12-08T06:25:14.534Z,2.80
2017-12-08T06:26:14.602Z,2.60
2017-12-08T06:27:14.557Z,2.90
2017-12-08T06:28:14.630Z,2.50
2017-12-08T06:29:14.556Z,2.60
2017-12-08T06:30:14.650Z,2.50
2017-12-08T06:31:14.567Z,2.60
2017-12-08T06:32:14.638Z,3.20
2017-12-08T06:33:14.583Z,2.40
2017-12-08T06:34:14.660Z,2.60
2017-12-08T06:35:14.580Z,2.30
2017-12-08T06:36:14.668Z,2.70
2017-12-08T06:37:14.588Z,2.20
2017-12-08T06:38:14.692Z,2.20
2017-12-08T06:39:14.595Z,2.50
2017-12-08T06:40:14.697Z,3.00
2017-12-08T06:41:14.641Z,2.30
2017-12-08T06:42:14.737Z,2.50
2017-12-08T06:43:14.633Z,2.80
2017-12-08T06:44:14.741Z,2.60
2017-12-08T06:45:14.625Z,2.50
2017-12-08T06:46:16.686Z,2.60
2017-12-08T06:47:14.640Z,2.80
2017-12-08T06:48:14.750Z,2.60
2017-12-08T06:49:14.652Z,2.90
2017-12-08T06:50:14.763Z,2.90
2017-12-08T06:51:14.661Z,2.90
2017-12-08T06:52:14.796Z,2.60
2017-12-08T06:53:14.670Z,2.70
2017-12-08T06:54:14.692Z,3.00
2017-12-08T06:55:14.679Z,2.60
2017-12-08T06:56:14.709Z,2.90
2017-12-08T06:57:14.682Z,3.00
2017-12-08T06:58:14.719Z,2.60
2017-12-08T06:59:14.699Z,2.90
2017-12-08T07:00:14.731Z,2.90
2017-12-08T07:01:14.725Z,2.90
2017-12-08T07:02:14.750Z,2.80
2017-12-08T07:03:14.711Z,3.20
2017-12-08T07:04:14.762Z,3.30
2017-12-08T07:05:14.723Z,2.80
2017-12-08T07:06:14.777Z,3.20
2017-12-08T07:07:14.747Z,3.50
2017-12-08T07:08:14.789Z,3.20
2017-12-08T07:09:14.749Z,2.90
2017-12-08T07:10:14.805Z,3.40
2017-12-08T07:11:14.756Z,3.80
2017-12-08T07:12:14.817Z,3.40
2017-12-08T07:13:14.757Z,3.30
2017-12-08T07:14:14.829Z,3.10
2017-12-08T07:15:14.785Z,3.60
2017-12-08T07:16:14.843Z,3.60
2017-12-08T07:17:14.786Z,3.20
2017-12-08T07:18:14.855Z,3.00
2017-12-08T07:19:14.791Z,3.90
2017-12-08T07:20:14.870Z,3.30
2017-12-08T07:21:14.798Z,3.80
2017-12-08T07:22:14.897Z,3.70
2017-12-08T07:23:14.816Z,3.50
2017-12-08T07:24:14.895Z,3.30
2017-12-08T07:25:14.820Z,3.40
2017-12-08T07:26:14.909Z,3.00
2017-12-08T07:27:14.819Z,3.40
2017-12-08T07:28:14.918Z,3.40
2017-12-08T07:29:14.840Z,3.70
2017-12-08T07:30:14.953Z,3.70
2017-12-08T07:31:14.849Z,3.40
2017-12-08T07:32:15.871Z,4.00
2017-12-08T07:33:14.903Z,3.30
2017-12-08T07:34:14.964Z,3.30
2017-12-08T07:35:14.870Z,3.20
2017-12-08T07:36:14.872Z,3.70
2017-12-08T07:37:14.873Z,3.40
2017-12-08T07:38:14.886Z,3.20
2017-12-08T07:39:14.886Z,3.60
2017-12-08T07:40:14.914Z,3.30
2017-12-08T07:41:14.899Z,4.00
2017-12-08T07:42:14.909Z,3.40
2017-12-08T07:43:14.980Z,3.60
2017-12-08T07:44:14.913Z,3.50
2017-12-08T07:45:14.921Z,2.80
2017-12-08T07:46:14.932Z,3.20
2017-12-08T07:47:14.938Z,3.20
2017-12-08T07:48:14.939Z,2.60
2017-12-08T07:49:14.932Z,3.20
2017-12-08T07:50:14.938Z,3.00
2017-12-08T07:51:14.944Z,4.50
2017-12-08T07:52:14.980Z,3.50
2017-12-08T07:53:14.955Z,2.70
2017-12-08T07:54:14.956Z,3.30
2017-12-08T07:55:14.958Z,3.50
2017-12-08T07:56:14.963Z,3.10
2017-12-08T07:57:14.966Z,3.00
2017-12-08T07:58:14.978Z,2.80
2017-12-08T07:59:14.978Z,2.70
2017-12-08T08:00:14.995Z,2.80
2017-12-08T08:01:15.002Z,3.00
2017-12-08T08:02:15.017Z,2.80
2017-12-08T08:03:15.012Z,3.20
2017-12-08T08:04:15.057Z,2.50
2017-12-08T08:05:15.010Z,2.80
2017-12-08T08:06:15.014Z,3.70
2017-12-08T08:07:15.018Z,3.20
2017-12-08T08:08:15.048Z,3.00
2017-12-08T08:09:15.025Z,2.90
2017-12-08T08:10:15.039Z,2.80
2017-12-08T08:11:16.090Z,2.70
2017-12-08T08:12:15.051Z,3.00
2017-12-08T08:13:15.047Z,3.00
2017-12-08T08:14:15.059Z,3.00
2017-12-08T08:15:15.063Z,2.90
2017-12-08T08:16:15.071Z,2.90
2017-12-08T08:17:15.078Z,3.20
2017-12-08T08:18:15.074Z,3.20
2017-12-08T08:19:15.095Z,3.30
2017-12-08T08:20:16.174Z,3.10
2017-12-08T08:21:15.115Z,3.10
2017-12-08T08:22:15.109Z,3.00
2017-12-08T08:23:15.092Z,3.50
2017-12-08T08:24:15.102Z,3.20
2017-12-08T08:25:15.113Z,3.40
2017-12-08T08:26:15.188Z,3.50
2017-12-08T08:27:15.124Z,3.70
2017-12-08T08:28:15.121Z,3.40
2017-12-08T08:29:15.123Z,4.00
2017-12-08T08:30:15.129Z,4.00
2017-12-08T08:31:15.127Z,3.70
2017-12-08T08:32:15.163Z,3.40
2017-12-08T08:33:15.144Z,4.20
2017-12-08T08:34:15.223Z,3.30
2017-12-08T08:35:15.165Z,4.00
2017-12-08T08:36:15.160Z,3.70
2017-12-08T08:37:15.161Z,3.80
2017-12-08T08:38:15.172Z,3.80
2017-12-08T08:39:15.171Z,3.70
2017-12-08T08:40:15.261Z,3.50
2017-12-08T08:41:15.182Z,3.70
2017-12-08T08:42:15.192Z,3.20
2017-12-08T08:43:15.194Z,3.50
2017-12-08T08:44:15.189Z,3.50
2017-12-08T08:45:15.192Z,4.10
2017-12-08T08:46:15.242Z,3.50
2017-12-08T08:47:15.241Z,3.50
2017-12-08T08:48:15.329Z,3.30
2017-12-08T08:49:15.215Z,3.60
2017-12-08T08:50:15.355Z,3.20
2017-12-08T08:51:15.223Z,3.20
2017-12-08T08:52:15.356Z,3.10
2017-12-08T08:53:15.231Z,3.00
2017-12-08T08:54:15.256Z,3.20
2017-12-08T08:55:15.247Z,3.40
2017-12-08T08:56:15.260Z,3.20
2017-12-08T08:57:15.254Z,2.90
2017-12-08T08:58:15.311Z,3.10
2017-12-08T08:59:15.260Z,3.00
2017-12-08T09:00:15.306Z,3.80
2017-12-08T09:01:15.285Z,2.70
2017-12-08T09:02:15.316Z,3.40
2017-12-08T09:03:15.290Z,3.10
2017-12-08T09:04:15.355Z,3.00
2017-12-08T09:05:15.290Z,3.30
2017-12-08T09:06:15.293Z,3.30
2017-12-08T09:07:15.320Z,3.20
2017-12-08T09:08:15.314Z,3.30
2017-12-08T09:09:15.318Z,3.20
2017-12-08T09:10:15.313Z,2.90
2017-12-08T09:11:15.345Z,3.50
2017-12-08T09:12:15.324Z,3.40
2017-12-08T09:13:15.367Z,3.30
2017-12-08T09:14:15.337Z,3.20
2017-12-08T09:15:15.360Z,3.20
2017-12-08T09:16:15.404Z,3.10
2017-12-08T09:17:15.354Z,3.40
2017-12-08T09:18:15.411Z,2.90
2017-12-08T09:19:15.363Z,3.60
2017-12-08T09:20:15.385Z,3.60
2017-12-08T09:21:15.394Z,3.40
2017-12-08T09:22:15.388Z,3.10
2017-12-08T09:23:15.373Z,2.90
2017-12-08T09:24:15.464Z,3.10
2017-12-08T09:25:15.389Z,3.40
2017-12-08T09:26:15.396Z,3.00
2017-12-08T09:27:15.406Z,2.70
2017-12-08T09:28:15.406Z,3.10
2017-12-08T09:29:15.402Z,3.30
2017-12-08T09:30:15.418Z,3.30
2017-12-08T09:31:15.412Z,2.90
2017-12-08T09:32:15.421Z,3.00
2017-12-08T09:33:15.427Z,3.10
2017-12-08T09:34:15.463Z,3.30
2017-12-08T09:35:15.442Z,3.40
2017-12-08T09:36:15.444Z,3.20
2017-12-08T09:37:15.476Z,3.00
2017-12-08T09:38:15.494Z,3.00
2017-12-08T09:39:15.478Z,2.90
2017-12-08T09:40:15.471Z,3.40
2017-12-08T09:41:15.490Z,3.80
2017-12-08T09:42:15.473Z,3.20
2017-12-08T09:43:15.592Z,3.80
2017-12-08T09:44:15.493Z,4.00
2017-12-08T09:45:15.503Z,4.50
2017-12-08T09:46:15.489Z,7.80
2017-12-08T09:47:15.506Z,11.10
2017-12-08T09:48:15.615Z,49.00
2017-12-08T09:49:15.500Z,10.30
2017-12-08T09:50:15.541Z,7.00
2017-12-08T09:51:15.506Z,4.50
2017-12-08T09:52:15.540Z,4.00
2017-12-08T09:53:15.529Z,4.50
2017-12-08T09:54:15.562Z,4.50
2017-12-08T09:55:15.531Z,8.00
2017-12-08T09:56:16.589Z,4.70
2017-12-08T09:57:15.533Z,5.50
2017-12-08T09:58:15.591Z,4.50
2017-12-08T09:59:15.575Z,4.10
2017-12-08T10:00:15.681Z,5.10
2017-12-08T10:01:15.551Z,4.60
2017-12-08T10:02:16.603Z,3.50
2017-12-08T10:03:15.569Z,3.60
2017-12-08T10:04:15.590Z,3.60
2017-12-08T10:05:15.616Z,3.40
2017-12-08T10:06:15.588Z,3.20
2017-12-08T10:07:15.626Z,3.30
2017-12-08T10:08:15.598Z,3.40
2017-12-08T10:09:15.605Z,3.30
2017-12-08T10:10:15.601Z,3.30
2017-12-08T10:11:15.609Z,3.60
2017-12-08T10:12:15.610Z,3.30
2017-12-08T10:13:15.611Z,3.10
2017-12-08T10:14:15.615Z,3.10
2017-12-08T10:15:15.623Z,2.90
2017-12-08T10:16:15.629Z,3.10
2017-12-08T10:17:15.629Z,3.20
2017-12-08T10:18:15.635Z,3.10
2017-12-08T10:19:15.641Z,3.60
2017-12-08T10:20:15.739Z,3.60
2017-12-08T10:21:15.662Z,3.50
2017-12-08T10:22:15.654Z,3.70
2017-12-08T10:23:15.666Z,4.00
2017-12-08T10:24:15.683Z,3.40
2017-12-08T10:25:15.681Z,4.80
2017-12-08T10:26:15.671Z,4.40
2017-12-08T10:27:15.747Z,4.10
2017-12-08T10:28:15.684Z,4.20
2017-12-08T10:29:15.685Z,4.10
2017-12-08T10:30:15.705Z,4.30
2017-12-08T10:31:15.720Z,4.30
2017-12-08T10:32:15.723Z,4.30
2017-12-08T10:33:15.713Z,3.90
2017-12-08T10:34:15.732Z,4.20
2017-12-08T10:35:15.799Z,4.60
2017-12-08T10:36:15.733Z,4.10
2017-12-08T10:37:15.749Z,4.10
2017-12-08T10:38:15.735Z,4.20
2017-12-08T10:39:15.734Z,4.40
2017-12-08T10:40:15.745Z,3.80
2017-12-08T10:41:15.743Z,4.40
2017-12-08T10:42:15.753Z,4.60
2017-12-08T10:43:15.769Z,4.10
2017-12-08T10:44:15.759Z,4.60
2017-12-08T10:45:15.762Z,4.40
2017-12-08T10:46:15.799Z,4.50
2017-12-08T10:47:15.772Z,4.50
2017-12-08T10:48:15.778Z,4.60
2017-12-08T10:49:15.797Z,5.10
2017-12-08T10:50:15.777Z,4.60
2017-12-08T10:51:15.797Z,4.80
2017-12-08T10:52:15.797Z,4.90
2017-12-08T10:53:15.843Z,5.20
2017-12-08T10:54:15.804Z,4.90
2017-12-08T10:55:15.807Z,4.80
2017-12-08T10:56:15.815Z,4.70
2017-12-08T10:57:15.820Z,5.00
2017-12-08T10:58:15.827Z,4.80
2017-12-08T10:59:15.840Z,5.00
2017-12-08T11:00:15.828Z,5.00
2017-12-08T11:01:15.843Z,5.20
2017-12-08T11:02:15.845Z,5.20
2017-12-08T11:03:15.849Z,5.70
2017-12-08T11:04:15.852Z,5.00
2017-12-08T11:05:15.864Z,5.00
2017-12-08T11:06:15.870Z,5.40
2017-12-08T11:07:15.917Z,5.30
2017-12-08T11:08:15.870Z,4.60
2017-12-08T11:09:15.874Z,4.90
2017-12-08T11:10:15.870Z,5.00
2017-12-08T11:11:15.892Z,4.50
2017-12-08T11:12:15.885Z,4.80
2017-12-08T11:13:15.886Z,5.00
2017-12-08T11:14:15.894Z,5.30
2017-12-08T11:15:15.899Z,5.30
2017-12-08T11:16:15.913Z,5.80
2017-12-08T11:17:15.905Z,5.80
2017-12-08T11:18:15.919Z,5.40
2017-12-08T11:19:15.919Z,5.80
2017-12-08T11:20:15.925Z,5.70
2017-12-08T11:21:16.047Z,5.30
2017-12-08T11:22:16.071Z,5.60
2017-12-08T11:23:16.993Z,5.70
2017-12-08T11:24:15.954Z,5.50
2017-12-08T11:25:16.983Z,5.50
2017-12-08T11:26:15.965Z,5.70
2017-12-08T11:27:16.980Z,6.20
2017-12-08T11:28:15.965Z,5.80
2017-12-08T11:29:16.111Z,5.70
2017-12-08T11:30:15.986Z,5.70
2017-12-08T11:31:16.101Z,5.90
2017-12-08T11:32:15.983Z,5.50
2017-12-08T11:33:17.030Z,5.90
2017-12-08T11:34:16.024Z,5.20
2017-12-08T11:35:15.994Z,5.30
2017-12-08T11:36:16.002Z,4.80
2017-12-08T11:37:16.051Z,5.20
2017-12-08T11:38:16.013Z,5.40
2017-12-08T11:39:16.038Z,5.20
2017-12-08T11:40:16.018Z,5.00
2017-12-08T11:41:16.023Z,5.40
2017-12-08T11:42:17.092Z,5.70
2017-12-08T11:43:16.045Z,5.30
2017-12-08T11:44:16.037Z,5.30
2017-12-08T11:45:18.137Z,5.70
2017-12-08T11:46:16.061Z,5.00
2017-12-08T11:47:17.131Z,5.00
2017-12-08T11:48:16.132Z,4.80
2017-12-08T11:49:17.153Z,4.20
2017-12-08T11:50:16.091Z,4.40
2017-12-08T11:51:16.123Z,4.30
2017-12-08T11:52:16.079Z,4.50
2017-12-08T11:53:16.072Z,4.20
2017-12-08T11:54:16.144Z,4.40
2017-12-08T11:55:16.082Z,4.30
2017-12-08T11:56:16.179Z,4.20
2017-12-08T11:57:16.136Z,4.60
2017-12-08T11:58:16.164Z,5.00
2017-12-08T11:59:16.102Z,4.40
2017-12-08T12:00:16.101Z,4.10
2017-12-08T12:01:16.108Z,4.10
2017-12-08T12:02:16.115Z,4.60
2017-12-08T12:03:16.136Z,4.20
2017-12-08T12:04:16.133Z,4.40
2017-12-08T12:05:16.219Z,4.30
2017-12-08T12:06:16.130Z,4.90
2017-12-08T12:07:16.233Z,5.00
2017-12-08T12:08:16.139Z,5.00
2017-12-08T12:09:16.241Z,4.50
2017-12-08T12:10:16.148Z,5.00
2017-12-08T12:11:16.258Z,5.20
2017-12-08T12:12:16.197Z,6.00
2017-12-08T12:13:16.172Z,5.20
2017-12-08T12:14:16.164Z,5.00
2017-12-08T12:15:16.283Z,5.10
2017-12-08T12:16:16.202Z,5.20
2017-12-08T12:17:16.209Z,4.80
2017-12-08T12:18:16.179Z,4.40
2017-12-08T12:19:16.219Z,5.00
2017-12-08T12:20:16.194Z,4.80
2017-12-08T12:21:16.222Z,5.00
2017-12-08T12:22:16.209Z,4.90
2017-12-08T12:23:16.240Z,4.20
2017-12-08T12:24:16.219Z,4.60
2017-12-08T12:25:16.275Z,4.40
2017-12-08T12:26:16.221Z,4.30
2017-12-08T12:27:16.268Z,4.90
2017-12-08T12:28:16.274Z,4.90
2017-12-08T12:29:16.274Z,5.30
2017-12-08T12:30:16.276Z,5.00
2017-12-08T12:31:16.250Z,4.90
2017-12-08T12:32:16.258Z,5.30
2017-12-08T12:33:17.331Z,4.70
2017-12-08T12:34:16.258Z,4.60
2017-12-08T12:35:16.328Z,5.00
2017-12-08T12:36:16.290Z,4.30
2017-12-08T12:37:16.333Z,4.20
2017-12-08T12:38:16.303Z,4.20
2017-12-08T12:39:16.312Z,4.20
2017-12-08T12:40:16.290Z,4.20
2017-12-08T12:41:16.293Z,4.30
2017-12-08T12:42:16.305Z,4.00
2017-12-08T12:43:16.368Z,3.80
2017-12-08T12:44:16.306Z,3.90
2017-12-08T12:45:16.305Z,4.10
2017-12-08T12:46:16.401Z,3.80
2017-12-08T12:47:16.334Z,3.50
2017-12-08T12:48:16.419Z,3.50
2017-12-08T12:49:16.331Z,3.70
2017-12-08T12:50:17.440Z,3.80
2017-12-08T12:51:16.332Z,3.80
2017-12-08T12:52:16.443Z,3.50
2017-12-08T12:53:16.345Z,3.70
2017-12-08T12:54:17.387Z,3.50
2017-12-08T12:55:16.366Z,4.10
2017-12-08T12:56:16.377Z,3.70
2017-12-08T12:57:16.364Z,3.90
2017-12-08T12:58:16.387Z,4.10
2017-12-08T12:59:16.400Z,4.10
2017-12-08T13:00:16.373Z,3.60
2017-12-08T13:01:16.383Z,3.90
2017-12-08T13:02:16.408Z,4.20
2017-12-08T13:03:16.401Z,3.90
2017-12-08T13:04:16.389Z,4.30
2017-12-08T13:05:16.395Z,4.20
2017-12-08T13:06:16.437Z,4.10
2017-12-08T13:07:16.406Z,4.20
2017-12-08T13:08:16.457Z,3.80
2017-12-08T13:09:16.419Z,3.90
2017-12-08T13:10:16.472Z,3.90
2017-12-08T13:11:16.463Z,3.80
2017-12-08T13:12:16.477Z,3.60
2017-12-08T13:13:16.466Z,4.10
2017-12-08T13:14:16.464Z,4.30
2017-12-08T13:15:16.476Z,3.70
2017-12-08T13:16:16.458Z,3.90